createdAt,value
2018-11-29T00:04:28.173Z,65.12
2018-11-29T00:09:46.628Z,64.72
2018-11-29T00:14:49.229Z,64.96
2018-11-29T00:19:51.798Z,64.72
2018-11-29T00:24:54.568Z,65.19
2018-11-29T00:29:57.119Z,65.37
2018-11-29T00:34:59.696Z,65.22
2018-11-29T00:40:02.698Z,65.68
2018-11-29T00:45:08.314Z,65.54
2018-11-29T00:50:12.264Z,65.56
2018-11-29T00:55:18.192Z,65.76
2018-11-29T01:00:23.716Z,65.78
2018-11-29T01:05:26.320Z,66.19
2018-11-29T01:10:28.912Z,65.75
2018-11-29T01:15:31.636Z,65.75
2018-11-29T01:20:34.228Z,65.94
2018-11-29T01:25:36.910Z,66.26
2018-11-29T01:30:39.573Z,66.10
2018-11-29T01:35:42.164Z,66.16
2018-11-29T01:40:44.714Z,65.96
2018-11-29T01:45:47.331Z,65.62
2018-11-29T01:50:49.937Z,66.02
2018-11-29T01:55:52.569Z,66.10
2018-11-29T02:00:55.240Z,66.03
2018-11-29T02:05:57.885Z,65.85
2018-11-29T02:11:00.543Z,65.97
2018-11-29T02:16:03.181Z,65.85
2018-11-29T02:21:07.197Z,65.81
2018-11-29T02:26:09.901Z,65.68
2018-11-29T02:31:12.708Z,65.29
2018-11-29T02:36:15.318Z,64.96
2018-11-29T02:41:17.952Z,65.75
2018-11-29T02:46:20.567Z,65.03
2018-11-29T02:51:23.176Z,65.29
2018-11-29T02:56:25.771Z,64.93
2018-11-29T03:01:28.970Z,64.52
2018-11-29T03:06:31.605Z,64.73
2018-11-29T03:11:34.203Z,64.25
2018-11-29T03:16:36.833Z,64.83
2018-11-29T03:21:39.420Z,63.94
2018-11-29T03:26:42.024Z,63.96
2018-11-29T03:31:44.703Z,64.14
2018-11-29T03:36:47.583Z,63.50
2018-11-29T03:41:50.233Z,63.40
2018-11-29T03:46:52.834Z,63.58
2018-11-29T03:51:55.478Z,63.11
2018-11-29T03:56:58.089Z,63.41
2018-11-29T04:02:00.680Z,63.25
2018-11-29T04:07:03.280Z,63.32
2018-11-29T04:12:05.894Z,62.54
2018-11-29T04:17:08.532Z,62.80
2018-11-29T04:22:11.155Z,63.04
2018-11-29T04:27:13.763Z,62.70
2018-11-29T04:32:16.389Z,62.45
2018-11-29T04:37:19.087Z,62.10
2018-11-29T04:42:21.714Z,61.98
2018-11-29T04:47:24.361Z,61.55
2018-11-29T04:52:26.947Z,61.36
2018-11-29T04:57:29.613Z,61.15
2018-11-29T05:02:32.191Z,61.26
2018-11-29T05:07:35.057Z,60.50
2018-11-29T05:12:37.629Z,60.25
2018-11-29T05:17:40.435Z,60.45
2018-11-29T05:22:43.117Z,60.05
2018-11-29T05:27:45.929Z,59.79
2018-11-29T05:32:48.514Z,59.06
2018-11-29T05:37:51.253Z,58.56
2018-11-29T05:42:54.055Z,58.59
2018-11-29T05:47:57.489Z,58.97
2018-11-29T05:53:00.101Z,57.82
2018-11-29T05:58:02.684Z,58.20
2018-11-29T06:03:05.412Z,57.50
2018-11-29T06:08:07.996Z,57.69
2018-11-29T06:13:10.616Z,57.84
2018-11-29T06:18:13.204Z,56.92
2018-11-29T06:23:15.824Z,56.96
2018-11-29T06:28:18.466Z,57.28
2018-11-29T06:33:21.154Z,56.79
2018-11-29T06:38:23.785Z,56.32
2018-11-29T06:43:26.441Z,56.21
2018-11-29T06:48:29.063Z,56.02
2018-11-29T06:53:37.453Z,55.99
2018-11-29T06:58:40.484Z,56.18
2018-11-29T07:03:43.397Z,55.99
2018-11-29T07:08:46.081Z,55.84
2018-11-29T07:13:48.981Z,55.71
2018-11-29T07:18:51.632Z,54.54
2018-11-29T07:23:54.479Z,54.59
2018-11-29T07:28:57.470Z,54.78
2018-11-29T07:34:00.218Z,54.28
2018-11-29T07:39:04.046Z,53.97
2018-11-29T07:44:08.661Z,54.39
2018-11-29T07:49:11.289Z,53.52
2018-11-29T07:54:13.916Z,53.50
2018-11-29T07:59:16.602Z,53.21
2018-11-29T08:04:19.317Z,53.64
2018-11-29T08:09:21.917Z,52.95
2018-11-29T08:14:24.492Z,52.89
2018-11-29T08:19:27.114Z,52.98
2018-11-29T08:24:29.713Z,52.45
2018-11-29T08:29:35.071Z,52.13
2018-11-29T08:34:34.920Z,51.76
2018-11-29T08:39:37.546Z,51.18
2018-11-29T08:44:40.166Z,50.37
2018-11-29T08:49:42.925Z,49.83
2018-11-29T08:54:48.426Z,49.93
2018-11-29T08:59:53.150Z,49.93
2018-11-29T09:04:56.132Z,50.31
2018-11-29T09:09:58.945Z,50.07
2018-11-29T09:15:01.525Z,49.83
2018-11-29T09:20:07.697Z,49.15
2018-11-29T09:25:12.889Z,49.26
2018-11-29T09:30:21.761Z,49.22
2018-11-29T09:35:24.440Z,49.54
2018-11-29T09:40:27.107Z,49.07
2018-11-29T09:45:29.809Z,48.91
2018-11-29T09:50:32.465Z,48.60
2018-11-29T09:55:35.094Z,48.74
2018-11-29T10:00:37.811Z,48.41
2018-11-29T10:05:42.364Z,48.44
2018-11-29T10:10:44.969Z,48.05
2018-11-29T10:15:47.559Z,46.43
2018-11-29T10:20:50.122Z,45.31
2018-11-29T10:25:52.730Z,43.39
2018-11-29T10:30:57.431Z,42.66
2018-11-29T10:36:00.131Z,41.28
2018-11-29T10:41:03.048Z,42.00
2018-11-29T10:46:06.440Z,42.04
2018-11-29T10:51:09.089Z,42.57
2018-11-29T10:56:11.698Z,43.21
2018-11-29T11:01:20.034Z,43.05
2018-11-29T11:06:22.600Z,43.02
2018-11-29T11:11:25.245Z,43.33
2018-11-29T11:16:27.997Z,44.01
2018-11-29T11:21:30.600Z,43.84
2018-11-29T11:26:33.237Z,44.45
2018-11-29T11:31:36.127Z,43.56
2018-11-29T11:36:38.744Z,43.46
2018-11-29T11:41:41.431Z,44.06
2018-11-29T11:46:44.048Z,43.97
2018-11-29T11:51:46.650Z,43.70
2018-11-29T11:56:49.349Z,43.55
2018-11-29T12:01:52.508Z,43.29
2018-11-29T12:06:55.304Z,43.09
2018-11-29T12:11:58.029Z,43.14
2018-11-29T12:17:00.640Z,43.09
2018-11-29T12:22:03.273Z,42.48
2018-11-29T12:27:06.213Z,42.53
2018-11-29T12:32:08.809Z,42.30
2018-11-29T12:37:11.479Z,43.03
2018-11-29T12:42:14.133Z,42.71
2018-11-29T12:47:16.789Z,42.33
2018-11-29T12:52:19.415Z,42.30
2018-11-29T12:57:22.081Z,42.48
2018-11-29T13:02:24.711Z,41.62
2018-11-29T13:07:27.399Z,41.65
2018-11-29T13:12:30.065Z,41.58
2018-11-29T13:17:32.773Z,41.44
2018-11-29T13:22:35.379Z,41.01
2018-11-29T13:27:37.984Z,41.17
2018-11-29T13:32:40.637Z,40.53
2018-11-29T13:37:46.709Z,41.19
2018-11-29T13:42:49.719Z,40.45
2018-11-29T13:47:52.445Z,40.94
2018-11-29T13:52:55.093Z,41.44
2018-11-29T13:57:57.689Z,40.92
2018-11-29T14:03:03.230Z,41.36
2018-11-29T14:08:07.375Z,41.10
2018-11-29T14:13:10.001Z,41.17
2018-11-29T14:18:12.664Z,41.16
2018-11-29T14:23:15.365Z,41.40
2018-11-29T14:28:18.077Z,41.13
2018-11-29T14:33:20.865Z,41.28
2018-11-29T14:38:23.525Z,41.47
2018-11-29T14:43:26.178Z,41.49
2018-11-29T14:48:28.948Z,41.15
2018-11-29T14:53:31.670Z,41.33
2018-11-29T14:58:34.209Z,41.45
2018-11-29T15:03:36.820Z,41.29
2018-11-29T15:08:39.561Z,42.23
2018-11-29T15:13:42.198Z,41.81
2018-11-29T15:18:44.836Z,41.91
2018-11-29T15:23:47.629Z,42.04
2018-11-29T15:28:50.350Z,42.08
2018-11-29T15:33:53.560Z,41.97
2018-11-29T15:38:56.392Z,42.15
2018-11-29T15:43:59.049Z,42.58
2018-11-29T15:49:01.636Z,42.44
2018-11-29T15:54:04.743Z,43.15
2018-11-29T15:59:07.368Z,42.52
2018-11-29T16:04:10.022Z,42.90
2018-11-29T16:09:12.674Z,43.23
2018-11-29T16:14:15.313Z,43.24
2018-11-29T16:19:17.951Z,43.31
2018-11-29T16:24:20.724Z,43.29
2018-11-29T16:29:23.329Z,43.41
2018-11-29T16:34:25.919Z,43.76
2018-11-29T16:39:28.513Z,43.67
2018-11-29T16:44:31.140Z,43.59
2018-11-29T16:49:33.695Z,44.17
2018-11-29T16:54:36.263Z,43.69
2018-11-29T16:59:39.030Z,44.37
2018-11-29T17:04:41.652Z,44.66
2018-11-29T17:09:45.204Z,44.34
2018-11-29T17:14:49.244Z,44.10
2018-11-29T17:19:51.890Z,44.43
2018-11-29T17:24:54.488Z,44.50
2018-11-29T17:29:57.108Z,43.84
2018-11-29T17:34:59.751Z,44.00
2018-11-29T17:40:02.660Z,43.95
2018-11-29T17:45:09.921Z,44.06
2018-11-29T17:50:32.493Z,43.40
2018-11-29T17:55:35.395Z,43.73
2018-11-29T18:00:38.184Z,43.34
2018-11-29T18:05:40.767Z,43.67
2018-11-29T18:10:43.899Z,43.52
2018-11-29T18:15:46.534Z,43.00
2018-11-29T18:20:49.182Z,42.75
2018-11-29T18:25:51.837Z,42.83
2018-11-29T18:30:54.590Z,42.71
2018-11-29T18:35:57.249Z,43.13
2018-11-29T18:40:59.982Z,43.44
2018-11-29T18:46:04.500Z,42.60
2018-11-29T18:51:07.161Z,43.02
2018-11-29T18:56:09.812Z,42.38
2018-11-29T19:01:12.369Z,42.44
2018-11-29T19:06:14.977Z,42.64
2018-11-29T19:11:17.542Z,42.36
2018-11-29T19:16:20.203Z,42.45
2018-11-29T19:21:22.860Z,42.26
2018-11-29T19:26:25.623Z,42.51
2018-11-29T19:31:28.285Z,42.18
2018-11-29T19:36:31.065Z,42.02
2018-11-29T19:41:33.673Z,42.32
2018-11-29T19:46:36.387Z,42.26
2018-11-29T19:51:39.171Z,42.19
2018-11-29T19:56:42.438Z,42.41
2018-11-29T20:01:45.131Z,41.75
2018-11-29T20:06:47.686Z,42.63
2018-11-29T20:11:50.280Z,42.12
2018-11-29T20:16:53.768Z,42.30
2018-11-29T20:21:56.409Z,42.32
2018-11-29T20:26:58.979Z,42.14
2018-11-29T20:32:01.606Z,42.39
2018-11-29T20:37:04.396Z,42.72
2018-11-29T20:42:07.024Z,42.24
2018-11-29T20:47:09.762Z,42.76
2018-11-29T20:52:12.400Z,43.00
2018-11-29T20:57:15.020Z,42.72
2018-11-29T21:02:17.666Z,42.78
2018-11-29T21:07:20.304Z,43.54
2018-11-29T21:12:22.932Z,43.17
2018-11-29T21:17:25.596Z,43.12
2018-11-29T21:22:28.227Z,43.16
2018-11-29T21:27:30.787Z,43.72
2018-11-29T21:32:33.408Z,43.88
2018-11-29T21:37:36.254Z,43.87
2018-11-29T21:42:39.287Z,43.83
2018-11-29T21:47:41.913Z,43.84
2018-11-29T21:52:44.629Z,44.09
2018-11-29T21:57:47.252Z,44.64
2018-11-29T22:02:56.805Z,44.07
2018-11-29T22:07:59.315Z,44.28
2018-11-29T22:13:01.894Z,44.07
2018-11-29T22:18:23.128Z,44.39
2018-11-29T22:23:25.830Z,45.11
2018-11-29T22:28:29.216Z,44.43
2018-11-29T22:33:31.836Z,44.61
2018-11-29T22:38:34.455Z,45.03
2018-11-29T22:43:37.041Z,44.79
2018-11-29T22:48:40.054Z,44.80
2018-11-29T22:53:42.693Z,45.07
2018-11-29T22:58:45.297Z,44.72
2018-11-29T23:03:47.889Z,44.61
2018-11-29T23:08:50.544Z,44.72
2018-11-29T23:13:53.109Z,45.30
2018-11-29T23:18:55.764Z,44.80
2018-11-29T23:23:58.373Z,45.12
2018-11-29T23:29:00.973Z,44.98
2018-11-29T23:34:03.651Z,44.84
2018-11-29T23:39:07.347Z,45.02
2018-11-29T23:44:09.965Z,45.68
2018-11-29T23:49:12.551Z,45.96
2018-11-29T23:54:15.197Z,45.37
2018-11-29T23:59:17.793Z,45.77
